sensor_id;sensor_type;location;lat;lon;timestamp;pressure;altitude;pressure_sealevel;temperature
19196;BMP280;9730;48.926;11.376;2022-09-03T00:00:36;97127.00;;;10.31
19196;BMP280;9730;48.926;11.376;2022-09-03T00:03:11;97122.19;;;10.59
19196;BMP280;9730;48.926;11.376;2022-09-03T00:05:44;97124.38;;;10.65
19196;BMP280;9730;48.926;11.376;2022-09-03T00:08:16;97120.19;;;10.81
19196;BMP280;9730;48.926;11.376;2022-09-03T00:10:50;97114.97;;;10.68
19196;BMP280;9730;48.926;11.376;2022-09-03T00:13:22;97113.41;;;10.81
19196;BMP280;9730;48.926;11.376;2022-09-03T00:15:50;97106.56;;;10.83
19196;BMP280;9730;48.926;11.376;2022-09-03T00:18:19;97116.00;;;10.80
19196;BMP280;9730;48.926;11.376;2022-09-03T00:20:50;97116.88;;;10.48
19196;BMP280;9730;48.926;11.376;2022-09-03T00:23:20;97121.69;;;10.53
19196;BMP280;9730;48.926;11.376;2022-09-03T00:25:51;97116.47;;;10.56
19196;BMP280;9730;48.926;11.376;2022-09-03T00:28:23;97123.78;;;10.45
19196;BMP280;9730;48.926;11.376;2022-09-03T00:31:09;97127.56;;;10.36
19196;BMP280;9730;48.926;11.376;2022-09-03T00:33:40;97126.78;;;10.36
19196;BMP280;9730;48.926;11.376;2022-09-03T00:36:14;97122.16;;;10.44
19196;BMP280;9730;48.926;11.376;2022-09-03T00:38:42;97125.75;;;10.55
19196;BMP280;9730;48.926;11.376;2022-09-03T00:41:19;97123.06;;;10.58
19196;BMP280;9730;48.926;11.376;2022-09-03T00:43:58;97121.84;;;10.65
19196;BMP280;9730;48.926;11.376;2022-09-03T00:46:35;97126.28;;;10.77
19196;BMP280;9730;48.926;11.376;2022-09-03T00:49:16;97127.31;;;10.73
19196;BMP280;9730;48.926;11.376;2022-09-03T00:51:50;97129.16;;;10.54
19196;BMP280;9730;48.926;11.376;2022-09-03T00:54:27;97126.47;;;10.57
19196;BMP280;9730;48.926;11.376;2022-09-03T00:57:10;97126.28;;;10.45
19196;BMP280;9730;48.926;11.376;2022-09-03T00:59:43;97126.47;;;10.57
19196;BMP280;9730;48.926;11.376;2022-09-03T01:02:18;97134.63;;;10.62
19196;BMP280;9730;48.926;11.376;2022-09-03T01:04:59;97130.91;;;10.69
19196;BMP280;9730;48.926;11.376;2022-09-03T01:07:34;97126.72;;;10.68
19196;BMP280;9730;48.926;11.376;2022-09-03T01:10:14;97121.63;;;10.69
19196;BMP280;9730;48.926;11.376;2022-09-03T01:12:47;97129.09;;;10.71
19196;BMP280;9730;48.926;11.376;2022-09-03T01:15:21;97122.38;;;10.87
19196;BMP280;9730;48.926;11.376;2022-09-03T01:18:00;97129.13;;;11.02
19196;BMP280;9730;48.926;11.376;2022-09-03T01:20:40;97124.25;;;10.99
19196;BMP280;9730;48.926;11.376;2022-09-03T01:23:37;97123.41;;;10.83
19196;BMP280;9730;48.926;11.376;2022-09-03T01:26:20;97129.75;;;10.90
19196;BMP280;9730;48.926;11.376;2022-09-03T01:29:02;97131.31;;;11.08
19196;BMP280;9730;48.926;11.376;2022-09-03T01:31:36;97131.81;;;11.14
19196;BMP280;9730;48.926;11.376;2022-09-03T01:34:11;97137.91;;;11.25
19196;BMP280;9730;48.926;11.376;2022-09-03T01:36:48;97135.94;;;11.30
19196;BMP280;9730;48.926;11.376;2022-09-03T01:39:27;97135.84;;;11.63
19196;BMP280;9730;48.926;11.376;2022-09-03T01:42:01;97132.47;;;11.48
19196;BMP280;9730;48.926;11.376;2022-09-03T01:47:40;97127.78;;;11.56
19196;BMP280;9730;48.926;11.376;2022-09-03T01:52:53;97124.03;;;11.77
19196;BMP280;9730;48.926;11.376;2022-09-03T01:55:29;97120.00;;;11.59
19196;BMP280;9730;48.926;11.376;2022-09-03T01:58:00;97130.97;;;11.60
19196;BMP280;9730;48.926;11.376;2022-09-03T02:00:33;97128.25;;;11.47
19196;BMP280;9730;48.926;11.376;2022-09-03T02:03:05;97128.16;;;11.64
19196;BMP280;9730;48.926;11.376;2022-09-03T02:05:33;97128.25;;;11.63
19196;BMP280;9730;48.926;11.376;2022-09-03T02:08:01;97121.63;;;11.89
19196;BMP280;9730;48.926;11.376;2022-09-03T02:10:31;97126.78;;;11.88
19196;BMP280;9730;48.926;11.376;2022-09-03T02:13:01;97117.34;;;12.05
19196;BMP280;9730;48.926;11.376;2022-09-03T02:15:31;97117.41;;;11.90
19196;BMP280;9730;48.926;11.376;2022-09-03T02:18:03;97123.59;;;12.27
19196;BMP280;9730;48.926;11.376;2022-09-03T02:20:31;97131.13;;;11.86
19196;BMP280;9730;48.926;11.376;2022-09-03T02:22:58;97120.00;;;11.74
19196;BMP280;9730;48.926;11.376;2022-09-03T02:25:29;97126.44;;;11.65
19196;BMP280;9730;48.926;11.376;2022-09-03T02:27:59;97128.78;;;11.83
19196;BMP280;9730;48.926;11.376;2022-09-03T02:30:25;97108.91;;;11.91
19196;BMP280;9730;48.926;11.376;2022-09-03T02:32:53;97106.78;;;12.13
19196;BMP280;9730;48.926;11.376;2022-09-03T02:35:20;97105.94;;;11.84
19196;BMP280;9730;48.926;11.376;2022-09-03T02:37:46;97114.72;;;11.93
19196;BMP280;9730;48.926;11.376;2022-09-03T02:40:13;97115.72;;;12.04
19196;BMP280;9730;48.926;11.376;2022-09-03T02:42:39;97115.75;;;11.75
19196;BMP280;9730;48.926;11.376;2022-09-03T02:45:12;97120.34;;;11.82
19196;BMP280;9730;48.926;11.376;2022-09-03T02:47:43;97120.16;;;12.01
19196;BMP280;9730;48.926;11.376;2022-09-03T02:50:14;97116.44;;;11.92
19196;BMP280;9730;48.926;11.376;2022-09-03T02:52:40;97120.53;;;11.79
19196;BMP280;9730;48.926;11.376;2022-09-03T02:55:08;97108.19;;;11.89
19196;BMP280;9730;48.926;11.376;2022-09-03T02:57:34;97125.50;;;11.81
19196;BMP280;9730;48.926;11.376;2022-09-03T03:00:01;97108.31;;;12.01
19196;BMP280;9730;48.926;11.376;2022-09-03T03:02:28;97108.09;;;11.90
19196;BMP280;9730;48.926;11.376;2022-09-03T03:04:55;97111.84;;;11.69
19196;BMP280;9730;48.926;11.376;2022-09-03T03:07:23;97104.44;;;11.67
19196;BMP280;9730;48.926;11.376;2022-09-03T03:09:50;97111.00;;;11.24
19196;BMP280;9730;48.926;11.376;2022-09-03T03:12:17;97112.63;;;11.41
19196;BMP280;9730;48.926;11.376;2022-09-03T03:14:44;97108.06;;;11.47
19196;BMP280;9730;48.926;11.376;2022-09-03T03:17:10;97099.31;;;11.68
19196;BMP280;9730;48.926;11.376;2022-09-03T03:19:37;97092.31;;;11.73
19196;BMP280;9730;48.926;11.376;2022-09-03T03:22:03;97099.75;;;11.61
19196;BMP280;9730;48.926;11.376;2022-09-03T03:24:31;97092.41;;;11.56
19196;BMP280;9730;48.926;11.376;2022-09-03T03:26:57;97092.31;;;11.73
19196;BMP280;9730;48.926;11.376;2022-09-03T03:29:24;97097.72;;;11.95
19196;BMP280;9730;48.926;11.376;2022-09-03T03:31:51;97099.66;;;11.62
19196;BMP280;9730;48.926;11.376;2022-09-03T03:34:18;97099.53;;;11.93
19196;BMP280;9730;48.926;11.376;2022-09-03T03:36:45;97104.41;;;11.82
19196;BMP280;9730;48.926;11.376;2022-09-03T03:39:11;97109.56;;;11.36
19196;BMP280;9730;48.926;11.376;2022-09-03T03:41:39;97118.47;;;10.97
19196;BMP280;9730;48.926;11.376;2022-09-03T03:44:06;97119.13;;;11.00
19196;BMP280;9730;48.926;11.376;2022-09-03T03:46:35;97114.97;;;10.84
19196;BMP280;9730;48.926;11.376;2022-09-03T03:49:02;97122.28;;;10.73
19196;BMP280;9730;48.926;11.376;2022-09-03T03:51:31;97124.00;;;10.72
19196;BMP280;9730;48.926;11.376;2022-09-03T03:53:58;97126.44;;;10.74
19196;BMP280;9730;48.926;11.376;2022-09-03T03:56:25;97129.84;;;10.73
19196;BMP280;9730;48.926;11.376;2022-09-03T03:58:54;97130.72;;;10.72
19196;BMP280;9730;48.926;11.376;2022-09-03T04:01:22;97125.84;;;10.69
19196;BMP280;9730;48.926;11.376;2022-09-03T04:03:50;97124.69;;;11.20
19196;BMP280;9730;48.926;11.376;2022-09-03T04:06:18;97119.75;;;11.04
19196;BMP280;9730;48.926;11.376;2022-09-03T04:08:46;97128.47;;;10.67
19196;BMP280;9730;48.926;11.376;2022-09-03T04:11:15;97130.56;;;10.75
19196;BMP280;9730;48.926;11.376;2022-09-03T04:13:43;97126.34;;;10.75
19196;BMP280;9730;48.926;11.376;2022-09-03T04:16:13;97129.44;;;10.65
19196;BMP280;9730;48.926;11.376;2022-09-03T04:18:40;97129.44;;;10.80
19196;BMP280;9730;48.926;11.376;2022-09-03T04:21:09;97119.59;;;10.91
19196;BMP280;9730;48.926;11.376;2022-09-03T04:23:37;97120.72;;;10.70
19196;BMP280;9730;48.926;11.376;2022-09-03T04:26:05;97127.16;;;10.76
19196;BMP280;9730;48.926;11.376;2022-09-03T04:28:31;97128.28;;;10.86
19196;BMP280;9730;48.926;11.376;2022-09-03T04:30:59;97127.06;;;10.93
19196;BMP280;9730;48.926;11.376;2022-09-03T04:33:28;97127.56;;;10.99
19196;BMP280;9730;48.926;11.376;2022-09-03T04:36:02;97125.38;;;11.09
19196;BMP280;9730;48.926;11.376;2022-09-03T04:38:29;97136.25;;;11.24
19196;BMP280;9730;48.926;11.376;2022-09-03T04:40:56;97142.84;;;11.42
19196;BMP280;9730;48.926;11.376;2022-09-03T04:43:23;97145.09;;;11.48
19196;BMP280;9730;48.926;11.376;2022-09-03T04:45:50;97145.75;;;11.66
19196;BMP280;9730;48.926;11.376;2022-09-03T04:48:16;97142.50;;;11.93
19196;BMP280;9730;48.926;11.376;2022-09-03T04:50:44;97135.25;;;11.73
19196;BMP280;9730;48.926;11.376;2022-09-03T04:53:11;97143.53;;;11.75
19196;BMP280;9730;48.926;11.376;2022-09-03T04:55:37;97143.84;;;11.55
19196;BMP280;9730;48.926;11.376;2022-09-03T04:58:04;97145.22;;;11.61
19196;BMP280;9730;48.926;11.376;2022-09-03T05:00:32;97149.78;;;11.54
19196;BMP280;9730;48.926;11.376;2022-09-03T05:02:59;97149.03;;;11.52
19196;BMP280;9730;48.926;11.376;2022-09-03T05:05:25;97150.69;;;11.82
19196;BMP280;9730;48.926;11.376;2022-09-03T05:07:56;97150.56;;;11.70
19196;BMP280;9730;48.926;11.376;2022-09-03T05:10:23;97159.13;;;11.37
19196;BMP280;9730;48.926;11.376;2022-09-03T05:12:57;97146.38;;;11.84
19196;BMP280;9730;48.926;11.376;2022-09-03T05:15:24;97159.19;;;11.66
19196;BMP280;9730;48.926;11.376;2022-09-03T05:17:55;97162.47;;;11.22
19196;BMP280;9730;48.926;11.376;2022-09-03T05:20:21;97165.72;;;11.39
19196;BMP280;9730;48.926;11.376;2022-09-03T05:22:48;97169.66;;;11.60
19196;BMP280;9730;48.926;11.376;2022-09-03T05:25:16;97168.63;;;11.78
19196;BMP280;9730;48.926;11.376;2022-09-03T05:27:43;97168.28;;;11.84
19196;BMP280;9730;48.926;11.376;2022-09-03T05:30:10;97169.19;;;12.12
19196;BMP280;9730;48.926;11.376;2022-09-03T05:32:37;97171.41;;;12.03
19196;BMP280;9730;48.926;11.376;2022-09-03T05:35:04;97178.91;;;12.04
19196;BMP280;9730;48.926;11.376;2022-09-03T05:37:31;97179.75;;;12.19
19196;BMP280;9730;48.926;11.376;2022-09-03T05:39:58;97179.19;;;12.14
19196;BMP280;9730;48.926;11.376;2022-09-03T05:42:26;97177.50;;;11.85
19196;BMP280;9730;48.926;11.376;2022-09-03T05:44:52;97183.34;;;11.85
19196;BMP280;9730;48.926;11.376;2022-09-03T05:47:19;97174.84;;;12.16
19196;BMP280;9730;48.926;11.376;2022-09-03T05:49:45;97184.97;;;12.16
19196;BMP280;9730;48.926;11.376;2022-09-03T05:52:12;97169.75;;;12.31
19196;BMP280;9730;48.926;11.376;2022-09-03T05:54:38;97167.13;;;12.19
19196;BMP280;9730;48.926;11.376;2022-09-03T05:57:05;97178.50;;;12.12
19196;BMP280;9730;48.926;11.376;2022-09-03T05:59:33;97172.72;;;12.23
19196;BMP280;9730;48.926;11.376;2022-09-03T06:01:59;97176.69;;;12.27
19196;BMP280;9730;48.926;11.376;2022-09-03T06:04:25;97177.09;;;12.63
19196;BMP280;9730;48.926;11.376;2022-09-03T06:06:52;97171.13;;;12.78
19196;BMP280;9730;48.926;11.376;2022-09-03T06:09:20;97162.28;;;12.71
19196;BMP280;9730;48.926;11.376;2022-09-03T06:11:47;97151.88;;;12.89
19196;BMP280;9730;48.926;11.376;2022-09-03T06:14:14;97151.69;;;12.78
19196;BMP280;9730;48.926;11.376;2022-09-03T06:16:44;97143.56;;;13.01
19196;BMP280;9730;48.926;11.376;2022-09-03T06:19:13;97139.69;;;12.68
19196;BMP280;9730;48.926;11.376;2022-09-03T06:21:40;97142.66;;;12.88
19196;BMP280;9730;48.926;11.376;2022-09-03T06:24:09;97139.16;;;13.17
19196;BMP280;9730;48.926;11.376;2022-09-03T06:26:36;97130.03;;;13.41
19196;BMP280;9730;48.926;11.376;2022-09-03T06:29:03;97131.38;;;13.97
19196;BMP280;9730;48.926;11.376;2022-09-03T06:31:29;97144.16;;;13.96
19196;BMP280;9730;48.926;11.376;2022-09-03T06:33:57;97144.34;;;14.32
19196;BMP280;9730;48.926;11.376;2022-09-03T06:36:24;97143.31;;;14.46
19196;BMP280;9730;48.926;11.376;2022-09-03T06:38:52;97140.25;;;14.17
19196;BMP280;9730;48.926;11.376;2022-09-03T06:41:21;97138.13;;;14.60
19196;BMP280;9730;48.926;11.376;2022-09-03T06:43:51;97133.38;;;14.43
19196;BMP280;9730;48.926;11.376;2022-09-03T06:46:18;97129.00;;;14.58
19196;BMP280;9730;48.926;11.376;2022-09-03T06:48:45;97134.81;;;14.23
19196;BMP280;9730;48.926;11.376;2022-09-03T06:51:14;97143.81;;;14.51
19196;BMP280;9730;48.926;11.376;2022-09-03T06:53:43;97147.88;;;14.29
19196;BMP280;9730;48.926;11.376;2022-09-03T06:56:11;97146.19;;;14.42
19196;BMP280;9730;48.926;11.376;2022-09-03T06:58:39;97146.34;;;14.51
19196;BMP280;9730;48.926;11.376;2022-09-03T07:01:09;97146.69;;;14.95
19196;BMP280;9730;48.926;11.376;2022-09-03T07:03:38;97150.72;;;15.10
19196;BMP280;9730;48.926;11.376;2022-09-03T07:06:07;97147.94;;;15.38
19196;BMP280;9730;48.926;11.376;2022-09-03T07:08:35;97154.94;;;15.81
19196;BMP280;9730;48.926;11.376;2022-09-03T07:11:03;97153.38;;;16.01
19196;BMP280;9730;48.926;11.376;2022-09-03T07:13:33;97137.09;;;16.60
19196;BMP280;9730;48.926;11.376;2022-09-03T07:16:00;97137.78;;;16.95
19196;BMP280;9730;48.926;11.376;2022-09-03T07:18:27;97136.03;;;17.59
19196;BMP280;9730;48.926;11.376;2022-09-03T07:20:57;97135.75;;;17.93
19196;BMP280;9730;48.926;11.376;2022-09-03T07:23:24;97135.84;;;17.82
19196;BMP280;9730;48.926;11.376;2022-09-03T07:25:53;97129.31;;;17.89
19196;BMP280;9730;48.926;11.376;2022-09-03T07:28:20;97134.56;;;17.97
19196;BMP280;9730;48.926;11.376;2022-09-03T07:30:47;97128.75;;;18.06
19196;BMP280;9730;48.926;11.376;2022-09-03T07:33:13;97134.69;;;17.96
19196;BMP280;9730;48.926;11.376;2022-09-03T07:35:40;97140.41;;;17.15
19196;BMP280;9730;48.926;11.376;2022-09-03T07:38:06;97131.34;;;17.44
19196;BMP280;9730;48.926;11.376;2022-09-03T07:40:34;97132.13;;;17.44
19196;BMP280;9730;48.926;11.376;2022-09-03T07:43:02;97137.00;;;17.78
19196;BMP280;9730;48.926;11.376;2022-09-03T07:45:28;97126.44;;;17.83
19196;BMP280;9730;48.926;11.376;2022-09-03T07:47:55;97122.25;;;18.43
19196;BMP280;9730;48.926;11.376;2022-09-03T07:50:22;97118.25;;;19.09
19196;BMP280;9730;48.926;11.376;2022-09-03T07:52:48;97116.16;;;20.18
19196;BMP280;9730;48.926;11.376;2022-09-03T07:55:15;97100.63;;;21.45
19196;BMP280;9730;48.926;11.376;2022-09-03T07:57:41;97109.53;;;20.70
19196;BMP280;9730;48.926;11.376;2022-09-03T08:00:11;97096.34;;;21.63
19196;BMP280;9730;48.926;11.376;2022-09-03T08:02:37;97096.63;;;21.16
19196;BMP280;9730;48.926;11.376;2022-09-03T08:05:05;97093.13;;;22.03
19196;BMP280;9730;48.926;11.376;2022-09-03T08:07:31;97084.78;;;22.52
19196;BMP280;9730;48.926;11.376;2022-09-03T08:09:58;97099.44;;;22.26
19196;BMP280;9730;48.926;11.376;2022-09-03T08:12:25;97087.78;;;22.98
19196;BMP280;9730;48.926;11.376;2022-09-03T08:14:52;97088.59;;;23.71
19196;BMP280;9730;48.926;11.376;2022-09-03T08:17:20;97089.28;;;24.59
19196;BMP280;9730;48.926;11.376;2022-09-03T08:19:46;97101.47;;;23.71
19196;BMP280;9730;48.926;11.376;2022-09-03T08:22:13;97087.66;;;24.66
19196;BMP280;9730;48.926;11.376;2022-09-03T08:24:39;97097.31;;;24.80
19196;BMP280;9730;48.926;11.376;2022-09-03T08:27:07;97104.13;;;24.57
19196;BMP280;9730;48.926;11.376;2022-09-03T08:29:33;97087.31;;;25.45
19196;BMP280;9730;48.926;11.376;2022-09-03T08:32:02;97096.50;;;24.71
19196;BMP280;9730;48.926;11.376;2022-09-03T08:34:30;97077.06;;;26.19
19196;BMP280;9730;48.926;11.376;2022-09-03T08:36:57;97076.94;;;26.12
19196;BMP280;9730;48.926;11.376;2022-09-03T08:39:25;97069.00;;;26.93
19196;BMP280;9730;48.926;11.376;2022-09-03T08:42:04;97071.38;;;25.64
19196;BMP280;9730;48.926;11.376;2022-09-03T08:44:39;97068.00;;;27.86
19196;BMP280;9730;48.926;11.376;2022-09-03T08:47:13;97060.44;;;29.06
19196;BMP280;9730;48.926;11.376;2022-09-03T08:49:46;97070.19;;;26.62
19196;BMP280;9730;48.926;11.376;2022-09-03T08:52:22;97093.72;;;22.98
19196;BMP280;9730;48.926;11.376;2022-09-03T08:54:51;97083.22;;;23.65
19196;BMP280;9730;48.926;11.376;2022-09-03T08:57:19;97061.75;;;25.06
19196;BMP280;9730;48.926;11.376;2022-09-03T08:59:46;97056.38;;;26.04
19196;BMP280;9730;48.926;11.376;2022-09-03T09:02:22;97060.09;;;24.74
19196;BMP280;9730;48.926;11.376;2022-09-03T09:04:58;97071.47;;;23.39
19196;BMP280;9730;48.926;11.376;2022-09-03T09:07:32;97055.56;;;24.14
19196;BMP280;9730;48.926;11.376;2022-09-03T09:10:08;97052.44;;;25.27
19196;BMP280;9730;48.926;11.376;2022-09-03T09:12:44;97046.63;;;27.56
19196;BMP280;9730;48.926;11.376;2022-09-03T09:15:24;97034.63;;;29.64
19196;BMP280;9730;48.926;11.376;2022-09-03T09:18:02;97043.78;;;27.93
19196;BMP280;9730;48.926;11.376;2022-09-03T09:20:37;97053.38;;;24.96
19196;BMP280;9730;48.926;11.376;2022-09-03T09:23:10;97037.91;;;25.48
19196;BMP280;9730;48.926;11.376;2022-09-03T09:25:44;97062.03;;;22.57
19196;BMP280;9730;48.926;11.376;2022-09-03T09:28:16;97070.22;;;20.52
19196;BMP280;9730;48.926;11.376;2022-09-03T09:30:44;97067.13;;;21.46
19196;BMP280;9730;48.926;11.376;2022-09-03T09:33:11;97050.47;;;22.61
19196;BMP280;9730;48.926;11.376;2022-09-03T09:35:39;97040.47;;;23.72
19196;BMP280;9730;48.926;11.376;2022-09-03T09:38:07;97028.78;;;24.47
19196;BMP280;9730;48.926;11.376;2022-09-03T09:40:36;97026.44;;;24.68
19196;BMP280;9730;48.926;11.376;2022-09-03T09:43:10;97029.34;;;25.03
19196;BMP280;9730;48.926;11.376;2022-09-03T09:45:39;97026.94;;;25.02
19196;BMP280;9730;48.926;11.376;2022-09-03T09:48:09;97032.94;;;25.24
19196;BMP280;9730;48.926;11.376;2022-09-03T09:50:40;97032.25;;;25.30
19196;BMP280;9730;48.926;11.376;2022-09-03T09:53:08;97023.19;;;25.34
19196;BMP280;9730;48.926;11.376;2022-09-03T09:55:53;97032.91;;;24.56
19196;BMP280;9730;48.926;11.376;2022-09-03T09:58:21;97027.34;;;24.83
19196;BMP280;9730;48.926;11.376;2022-09-03T10:00:55;97029.94;;;24.75
19196;BMP280;9730;48.926;11.376;2022-09-03T10:03:22;97034.94;;;24.22
19196;BMP280;9730;48.926;11.376;2022-09-03T10:06:01;97031.63;;;24.60
19196;BMP280;9730;48.926;11.376;2022-09-03T10:08:50;97043.31;;;23.37
19196;BMP280;9730;48.926;11.376;2022-09-03T10:11:17;97037.28;;;23.78
19196;BMP280;9730;48.926;11.376;2022-09-03T10:13:46;97032.69;;;24.19
19196;BMP280;9730;48.926;11.376;2022-09-03T10:16:17;97043.97;;;24.18
19196;BMP280;9730;48.926;11.376;2022-09-03T10:18:48;97050.28;;;23.76
19196;BMP280;9730;48.926;11.376;2022-09-03T10:21:26;97052.50;;;23.40
19196;BMP280;9730;48.926;11.376;2022-09-03T10:23:58;97049.13;;;23.47
19196;BMP280;9730;48.926;11.376;2022-09-03T10:26:26;97054.63;;;22.54
19196;BMP280;9730;48.926;11.376;2022-09-03T10:28:58;97050.81;;;23.07
19196;BMP280;9730;48.926;11.376;2022-09-03T10:31:41;97055.88;;;23.40
19196;BMP280;9730;48.926;11.376;2022-09-03T10:34:15;97039.16;;;23.52
19196;BMP280;9730;48.926;11.376;2022-09-03T10:36:52;97032.38;;;24.06
19196;BMP280;9730;48.926;11.376;2022-09-03T10:39:28;97043.00;;;23.64
19196;BMP280;9730;48.926;11.376;2022-09-03T10:42:13;97026.59;;;24.05
19196;BMP280;9730;48.926;11.376;2022-09-03T10:44:53;97037.09;;;24.65
19196;BMP280;9730;48.926;11.376;2022-09-03T10:47:34;97045.19;;;22.29
19196;BMP280;9730;48.926;11.376;2022-09-03T10:50:10;97046.34;;;22.76
19196;BMP280;9730;48.926;11.376;2022-09-03T10:52:55;97043.84;;;23.88
19196;BMP280;9730;48.926;11.376;2022-09-03T10:55:32;97038.47;;;24.13
19196;BMP280;9730;48.926;11.376;2022-09-03T10:58:09;97040.75;;;24.16
19196;BMP280;9730;48.926;11.376;2022-09-03T11:00:40;97038.28;;;24.31
19196;BMP280;9730;48.926;11.376;2022-09-03T11:03:42;97035.94;;;23.90
19196;BMP280;9730;48.926;11.376;2022-09-03T11:06:14;97033.63;;;24.80
19196;BMP280;9730;48.926;11.376;2022-09-03T11:08:48;97030.97;;;25.49
19196;BMP280;9730;48.926;11.376;2022-09-03T11:11:18;97039.69;;;24.57
19196;BMP280;9730;48.926;11.376;2022-09-03T11:13:50;97049.00;;;23.72
19196;BMP280;9730;48.926;11.376;2022-09-03T11:16:21;97036.19;;;24.34
19196;BMP280;9730;48.926;11.376;2022-09-03T11:18:54;97039.91;;;24.40
19196;BMP280;9730;48.926;11.376;2022-09-03T11:21:24;97034.75;;;24.32
19196;BMP280;9730;48.926;11.376;2022-09-03T11:24:04;97045.50;;;22.59
19196;BMP280;9730;48.926;11.376;2022-09-03T11:26:33;97039.28;;;23.35
19196;BMP280;9730;48.926;11.376;2022-09-03T11:29:05;97038.69;;;21.40
19196;BMP280;9730;48.926;11.376;2022-09-03T11:31:45;97028.22;;;22.36
19196;BMP280;9730;48.926;11.376;2022-09-03T11:34:13;97025.31;;;22.72
19196;BMP280;9730;48.926;11.376;2022-09-03T11:36:41;97030.50;;;21.96
19196;BMP280;9730;48.926;11.376;2022-09-03T11:39:19;97022.75;;;22.14
19196;BMP280;9730;48.926;11.376;2022-09-03T11:41:57;97018.88;;;22.35
19196;BMP280;9730;48.926;11.376;2022-09-03T11:44:35;97015.78;;;22.57
19196;BMP280;9730;48.926;11.376;2022-09-03T11:47:12;97022.91;;;22.87
19196;BMP280;9730;48.926;11.376;2022-09-03T11:49:43;97023.31;;;23.07
19196;BMP280;9730;48.926;11.376;2022-09-03T11:52:10;97022.91;;;22.79
19196;BMP280;9730;48.926;11.376;2022-09-03T11:54:44;97026.13;;;22.14
19196;BMP280;9730;48.926;11.376;2022-09-03T11:57:12;97028.06;;;22.20
19196;BMP280;9730;48.926;11.376;2022-09-03T11:59:39;97022.66;;;22.23
19196;BMP280;9730;48.926;11.376;2022-09-03T12:02:17;97030.50;;;21.54
19196;BMP280;9730;48.926;11.376;2022-09-03T12:04:49;97024.66;;;22.12
19196;BMP280;9730;48.926;11.376;2022-09-03T12:07:34;97026.69;;;22.51
19196;BMP280;9730;48.926;11.376;2022-09-03T12:10:18;97026.78;;;21.91
19196;BMP280;9730;48.926;11.376;2022-09-03T12:12:56;97022.13;;;21.34
19196;BMP280;9730;48.926;11.376;2022-09-03T12:15:39;97006.69;;;22.12
19196;BMP280;9730;48.926;11.376;2022-09-03T12:18:13;97003.00;;;22.81
19196;BMP280;9730;48.926;11.376;2022-09-03T12:20:58;97002.00;;;23.47
19196;BMP280;9730;48.926;11.376;2022-09-03T12:23:25;97000.53;;;23.20
19196;BMP280;9730;48.926;11.376;2022-09-03T12:25:54;97002.16;;;23.53
19196;BMP280;9730;48.926;11.376;2022-09-03T12:28:29;97006.44;;;22.56
19196;BMP280;9730;48.926;11.376;2022-09-03T12:31:06;97001.63;;;21.94
19196;BMP280;9730;48.926;11.376;2022-09-03T12:33:46;96996.03;;;22.24
19196;BMP280;9730;48.926;11.376;2022-09-03T12:36:13;96993.53;;;22.40
19196;BMP280;9730;48.926;11.376;2022-09-03T12:38:40;96991.47;;;22.43
19196;BMP280;9730;48.926;11.376;2022-09-03T12:41:20;96988.47;;;23.21
19196;BMP280;9730;48.926;11.376;2022-09-03T12:43:50;97004.41;;;23.48
19196;BMP280;9730;48.926;11.376;2022-09-03T12:46:17;97014.81;;;23.07
19196;BMP280;9730;48.926;11.376;2022-09-03T12:48:56;97016.31;;;23.41
19196;BMP280;9730;48.926;11.376;2022-09-03T12:51:33;97023.03;;;23.18
19196;BMP280;9730;48.926;11.376;2022-09-03T12:54:02;97028.88;;;21.70
19196;BMP280;9730;48.926;11.376;2022-09-03T12:56:31;97022.78;;;22.22
19196;BMP280;9730;48.926;11.376;2022-09-03T12:59:03;97022.59;;;22.41
19196;BMP280;9730;48.926;11.376;2022-09-03T13:01:32;97013.47;;;21.95
19196;BMP280;9730;48.926;11.376;2022-09-03T13:04:02;97015.25;;;21.52
19196;BMP280;9730;48.926;11.376;2022-09-03T13:06:32;97017.53;;;21.81
19196;BMP280;9730;48.926;11.376;2022-09-03T13:09:01;97019.41;;;22.21
19196;BMP280;9730;48.926;11.376;2022-09-03T13:11:33;97017.31;;;21.91
19196;BMP280;9730;48.926;11.376;2022-09-03T13:14:03;97019.38;;;22.13
19196;BMP280;9730;48.926;11.376;2022-09-03T13:16:54;97014.06;;;22.32
19196;BMP280;9730;48.926;11.376;2022-09-03T13:19:36;97012.59;;;22.71
19196;BMP280;9730;48.926;11.376;2022-09-03T13:22:13;97003.00;;;22.81
19196;BMP280;9730;48.926;11.376;2022-09-03T13:25:00;96999.16;;;22.85
19196;BMP280;9730;48.926;11.376;2022-09-03T13:27:35;96990.41;;;23.19
19196;BMP280;9730;48.926;11.376;2022-09-03T13:30:06;96992.38;;;22.68
19196;BMP280;9730;48.926;11.376;2022-09-03T13:32:51;96988.63;;;23.11
19196;BMP280;9730;48.926;11.376;2022-09-03T13:35:27;97002.63;;;22.27
19196;BMP280;9730;48.926;11.376;2022-09-03T13:37:57;97002.63;;;22.01
19196;BMP280;9730;48.926;11.376;2022-09-03T13:40:34;97001.84;;;21.41
19196;BMP280;9730;48.926;11.376;2022-09-03T13:43:17;97005.13;;;21.33
19196;BMP280;9730;48.926;11.376;2022-09-03T13:45:51;97000.91;;;21.85
19196;BMP280;9730;48.926;11.376;2022-09-03T13:48:21;97005.34;;;22.25
19196;BMP280;9730;48.926;11.376;2022-09-03T13:51:12;97005.19;;;22.60
19196;BMP280;9730;48.926;11.376;2022-09-03T13:53:49;97011.16;;;22.68
19196;BMP280;9730;48.926;11.376;2022-09-03T13:56:28;97013.72;;;22.68
19196;BMP280;9730;48.926;11.376;2022-09-03T13:59:05;97013.75;;;22.76
19196;BMP280;9730;48.926;11.376;2022-09-03T14:01:50;97012.41;;;23.05
19196;BMP280;9730;48.926;11.376;2022-09-03T14:04:26;97012.09;;;23.08
19196;BMP280;9730;48.926;11.376;2022-09-03T14:06:59;97013.69;;;23.01
19196;BMP280;9730;48.926;11.376;2022-09-03T14:09:32;97027.72;;;21.65
19196;BMP280;9730;48.926;11.376;2022-09-03T14:12:04;97012.56;;;21.79
19196;BMP280;9730;48.926;11.376;2022-09-03T14:14:39;97018.47;;;21.54
19196;BMP280;9730;48.926;11.376;2022-09-03T14:17:12;97034.81;;;21.36
19196;BMP280;9730;48.926;11.376;2022-09-03T14:19:45;97026.16;;;21.72
19196;BMP280;9730;48.926;11.376;2022-09-03T14:22:17;97021.34;;;21.94
19196;BMP280;9730;48.926;11.376;2022-09-03T14:24:50;97025.97;;;21.90
19196;BMP280;9730;48.926;11.376;2022-09-03T14:27:24;97034.25;;;21.59
19196;BMP280;9730;48.926;11.376;2022-09-03T14:29:57;97039.16;;;21.53
19196;BMP280;9730;48.926;11.376;2022-09-03T14:32:38;97038.69;;;21.23
19196;BMP280;9730;48.926;11.376;2022-09-03T14:35:26;97040.59;;;21.21
19196;BMP280;9730;48.926;11.376;2022-09-03T14:38:09;97045.47;;;20.43